sensor_id;sensor_type;location;lat;lon;timestamp;temperature;humidity
5868;DHT22;2960;49.142;7.768;2023-07-13T00:00:25;20.50;52.90
5868;DHT22;2960;49.142;7.768;2023-07-13T00:02:52;20.40;52.90
5868;DHT22;2960;49.142;7.768;2023-07-13T00:05:21;20.40;53.00
5868;DHT22;2960;49.142;7.768;2023-07-13T00:07:50;20.30;53.10
5868;DHT22;2960;49.142;7.768;2023-07-13T00:10:18;20.30;53.20
5868;DHT22;2960;49.142;7.768;2023-07-13T00:12:45;20.20;53.30
5868;DHT22;2960;49.142;7.768;2023-07-13T00:15:14;20.10;53.40
5868;DHT22;2960;49.142;7.768;2023-07-13T00:17:42;20.10;53.50
5868;DHT22;2960;49.142;7.768;2023-07-13T00:20:11;20.10;53.60
5868;DHT22;2960;49.142;7.768;2023-07-13T00:22:40;20.00;53.50
5868;DHT22;2960;49.142;7.768;2023-07-13T00:25:09;20.00;53.60
5868;DHT22;2960;49.142;7.768;2023-07-13T00:27:37;20.00;53.60
5868;DHT22;2960;49.142;7.768;2023-07-13T00:30:05;19.90;53.60
5868;DHT22;2960;49.142;7.768;2023-07-13T00:32:34;19.90;53.70
5868;DHT22;2960;49.142;7.768;2023-07-13T00:35:02;19.90;53.70
5868;DHT22;2960;49.142;7.768;2023-07-13T00:37:30;19.90;53.80
5868;DHT22;2960;49.142;7.768;2023-07-13T00:39:58;19.80;53.80
5868;DHT22;2960;49.142;7.768;2023-07-13T00:42:25;19.70;53.90
5868;DHT22;2960;49.142;7.768;2023-07-13T00:45:04;19.70;54.00
5868;DHT22;2960;49.142;7.768;2023-07-13T00:47:33;19.70;54.00
5868;DHT22;2960;49.142;7.768;2023-07-13T00:50:01;19.60;54.10
5868;DHT22;2960;49.142;7.768;2023-07-13T00:52:33;19.60;54.20
5868;DHT22;2960;49.142;7.768;2023-07-13T00:55:04;19.50;54.20
5868;DHT22;2960;49.142;7.768;2023-07-13T00:57:32;19.40;54.20
5868;DHT22;2960;49.142;7.768;2023-07-13T01:00:01;19.40;54.40
5868;DHT22;2960;49.142;7.768;2023-07-13T01:02:34;19.40;54.50
5868;DHT22;2960;49.142;7.768;2023-07-13T01:05:09;19.30;54.50
5868;DHT22;2960;49.142;7.768;2023-07-13T01:07:36;19.30;54.60
5868;DHT22;2960;49.142;7.768;2023-07-13T01:10:05;19.20;54.70
5868;DHT22;2960;49.142;7.768;2023-07-13T01:12:33;19.10;54.80
5868;DHT22;2960;49.142;7.768;2023-07-13T01:15:02;19.10;54.90
5868;DHT22;2960;49.142;7.768;2023-07-13T01:17:31;19.00;54.90
5868;DHT22;2960;49.142;7.768;2023-07-13T01:20:00;19.00;54.90
5868;DHT22;2960;49.142;7.768;2023-07-13T01:22:29;19.00;54.90
5868;DHT22;2960;49.142;7.768;2023-07-13T01:24:57;19.00;54.90
5868;DHT22;2960;49.142;7.768;2023-07-13T01:27:25;19.00;54.90
5868;DHT22;2960;49.142;7.768;2023-07-13T01:29:53;19.00;54.90
5868;DHT22;2960;49.142;7.768;2023-07-13T01:32:27;19.00;55.00
5868;DHT22;2960;49.142;7.768;2023-07-13T01:34:56;18.90;54.90
5868;DHT22;2960;49.142;7.768;2023-07-13T01:37:25;18.90;54.90
5868;DHT22;2960;49.142;7.768;2023-07-13T01:39:54;18.90;55.00
5868;DHT22;2960;49.142;7.768;2023-07-13T01:42:24;18.90;55.10
5868;DHT22;2960;49.142;7.768;2023-07-13T01:44:51;18.80;55.10
5868;DHT22;2960;49.142;7.768;2023-07-13T01:47:18;18.80;55.20
5868;DHT22;2960;49.142;7.768;2023-07-13T01:49:45;18.80;55.30
5868;DHT22;2960;49.142;7.768;2023-07-13T01:52:13;18.70;55.30
5868;DHT22;2960;49.142;7.768;2023-07-13T01:54:40;18.70;55.30
5868;DHT22;2960;49.142;7.768;2023-07-13T01:57:08;18.60;55.40
5868;DHT22;2960;49.142;7.768;2023-07-13T01:59:35;18.60;55.40
5868;DHT22;2960;49.142;7.768;2023-07-13T02:02:02;18.60;55.40
5868;DHT22;2960;49.142;7.768;2023-07-13T02:04:30;18.60;55.50
5868;DHT22;2960;49.142;7.768;2023-07-13T02:06:57;18.50;55.40
5868;DHT22;2960;49.142;7.768;2023-07-13T02:09:24;18.50;55.60
5868;DHT22;2960;49.142;7.768;2023-07-13T02:11:51;18.50;55.70
5868;DHT22;2960;49.142;7.768;2023-07-13T02:14:20;18.40;55.70
5868;DHT22;2960;49.142;7.768;2023-07-13T02:16:47;18.40;56.30
5868;DHT22;2960;49.142;7.768;2023-07-13T02:19:14;18.40;55.90
5868;DHT22;2960;49.142;7.768;2023-07-13T02:21:41;18.40;55.90
5868;DHT22;2960;49.142;7.768;2023-07-13T02:24:08;18.30;55.80
5868;DHT22;2960;49.142;7.768;2023-07-13T02:26:35;18.30;55.90
5868;DHT22;2960;49.142;7.768;2023-07-13T02:29:03;18.30;55.90
5868;DHT22;2960;49.142;7.768;2023-07-13T02:31:31;18.30;55.90
5868;DHT22;2960;49.142;7.768;2023-07-13T02:33:58;18.30;56.00
5868;DHT22;2960;49.142;7.768;2023-07-13T02:36:25;18.20;56.00
5868;DHT22;2960;49.142;7.768;2023-07-13T02:38:52;18.10;56.00
5868;DHT22;2960;49.142;7.768;2023-07-13T02:41:19;18.10;56.80
5868;DHT22;2960;49.142;7.768;2023-07-13T02:43:48;18.00;56.30
5868;DHT22;2960;49.142;7.768;2023-07-13T02:46:15;18.00;56.40
5868;DHT22;2960;49.142;7.768;2023-07-13T02:48:44;18.00;56.40
5868;DHT22;2960;49.142;7.768;2023-07-13T02:51:12;17.90;56.40
5868;DHT22;2960;49.142;7.768;2023-07-13T02:53:39;17.90;56.40
5868;DHT22;2960;49.142;7.768;2023-07-13T02:56:06;17.90;56.40
5868;DHT22;2960;49.142;7.768;2023-07-13T02:58:33;17.80;56.40
5868;DHT22;2960;49.142;7.768;2023-07-13T03:01:06;17.80;56.50
5868;DHT22;2960;49.142;7.768;2023-07-13T03:03:34;17.80;56.60
5868;DHT22;2960;49.142;7.768;2023-07-13T03:06:04;17.70;56.60
5868;DHT22;2960;49.142;7.768;2023-07-13T03:08:33;17.70;56.70
5868;DHT22;2960;49.142;7.768;2023-07-13T03:11:01;17.70;56.80
5868;DHT22;2960;49.142;7.768;2023-07-13T03:13:29;17.60;56.80
5868;DHT22;2960;49.142;7.768;2023-07-13T03:15:56;17.50;56.90
5868;DHT22;2960;49.142;7.768;2023-07-13T03:18:23;17.50;57.00
5868;DHT22;2960;49.142;7.768;2023-07-13T03:20:51;17.40;57.00
5868;DHT22;2960;49.142;7.768;2023-07-13T03:23:20;17.40;57.10
5868;DHT22;2960;49.142;7.768;2023-07-13T03:25:48;17.40;57.00
5868;DHT22;2960;49.142;7.768;2023-07-13T03:28:16;17.40;57.10
5868;DHT22;2960;49.142;7.768;2023-07-13T03:30:43;17.40;57.10
5868;DHT22;2960;49.142;7.768;2023-07-13T03:33:10;17.30;57.20
5868;DHT22;2960;49.142;7.768;2023-07-13T03:35:40;17.30;57.90
5868;DHT22;2960;49.142;7.768;2023-07-13T03:38:07;17.20;57.40
5868;DHT22;2960;49.142;7.768;2023-07-13T03:40:36;17.20;57.40
5868;DHT22;2960;49.142;7.768;2023-07-13T03:43:03;17.20;57.50
5868;DHT22;2960;49.142;7.768;2023-07-13T03:45:32;17.10;57.50
5868;DHT22;2960;49.142;7.768;2023-07-13T03:48:00;17.10;57.60
5868;DHT22;2960;49.142;7.768;2023-07-13T03:50:27;17.00;57.50
5868;DHT22;2960;49.142;7.768;2023-07-13T03:52:54;17.00;57.60
5868;DHT22;2960;49.142;7.768;2023-07-13T03:55:21;17.00;57.60
5868;DHT22;2960;49.142;7.768;2023-07-13T03:57:54;16.90;57.70
5868;DHT22;2960;49.142;7.768;2023-07-13T04:00:25;16.90;57.80
5868;DHT22;2960;49.142;7.768;2023-07-13T04:02:52;16.90;57.70
5868;DHT22;2960;49.142;7.768;2023-07-13T04:05:19;16.90;58.30
5868;DHT22;2960;49.142;7.768;2023-07-13T04:07:46;16.90;57.70
5868;DHT22;2960;49.142;7.768;2023-07-13T04:10:13;16.90;57.70
5868;DHT22;2960;49.142;7.768;2023-07-13T04:12:40;16.90;57.70
5868;DHT22;2960;49.142;7.768;2023-07-13T04:15:09;16.90;57.60
5868;DHT22;2960;49.142;7.768;2023-07-13T04:17:39;16.90;57.60
5868;DHT22;2960;49.142;7.768;2023-07-13T04:20:07;16.90;57.70
5868;DHT22;2960;49.142;7.768;2023-07-13T04:22:34;16.90;57.70
5868;DHT22;2960;49.142;7.768;2023-07-13T04:25:01;16.90;57.70
5868;DHT22;2960;49.142;7.768;2023-07-13T04:27:31;16.90;58.30
5868;DHT22;2960;49.142;7.768;2023-07-13T04:29:58;17.00;57.80
5868;DHT22;2960;49.142;7.768;2023-07-13T04:32:27;17.00;57.80
5868;DHT22;2960;49.142;7.768;2023-07-13T04:34:54;17.00;57.80
5868;DHT22;2960;49.142;7.768;2023-07-13T04:37:23;17.00;57.80
5868;DHT22;2960;49.142;7.768;2023-07-13T04:39:50;17.00;57.90
5868;DHT22;2960;49.142;7.768;2023-07-13T04:42:17;17.00;58.00
5868;DHT22;2960;49.142;7.768;2023-07-13T04:44:47;17.00;58.10
5868;DHT22;2960;49.142;7.768;2023-07-13T04:47:15;17.00;58.10
5868;DHT22;2960;49.142;7.768;2023-07-13T04:49:44;17.00;58.10
5868;DHT22;2960;49.142;7.768;2023-07-13T04:52:11;17.10;58.80
5868;DHT22;2960;49.142;7.768;2023-07-13T04:54:38;17.10;58.20
5868;DHT22;2960;49.142;7.768;2023-07-13T04:57:06;17.20;58.20
5868;DHT22;2960;49.142;7.768;2023-07-13T04:59:34;17.20;58.20
5868;DHT22;2960;49.142;7.768;2023-07-13T05:02:01;17.20;58.10
5868;DHT22;2960;49.142;7.768;2023-07-13T05:04:31;17.30;58.20
5868;DHT22;2960;49.142;7.768;2023-07-13T05:06:59;17.30;58.20
5868;DHT22;2960;49.142;7.768;2023-07-13T05:09:27;17.40;58.20
5868;DHT22;2960;49.142;7.768;2023-07-13T05:11:54;17.40;58.20
5868;DHT22;2960;49.142;7.768;2023-07-13T05:14:21;17.50;58.30
5868;DHT22;2960;49.142;7.768;2023-07-13T05:16:48;17.50;58.20
5868;DHT22;2960;49.142;7.768;2023-07-13T05:19:15;17.60;58.20
5868;DHT22;2960;49.142;7.768;2023-07-13T05:21:42;17.60;58.30
5868;DHT22;2960;49.142;7.768;2023-07-13T05:24:11;17.70;58.30
5868;DHT22;2960;49.142;7.768;2023-07-13T05:26:38;17.70;58.30
5868;DHT22;2960;49.142;7.768;2023-07-13T05:29:05;17.80;58.40
5868;DHT22;2960;49.142;7.768;2023-07-13T05:31:32;17.80;58.40
5868;DHT22;2960;49.142;7.768;2023-07-13T05:33:59;17.90;58.50
5868;DHT22;2960;49.142;7.768;2023-07-13T05:36:27;18.00;58.50
5868;DHT22;2960;49.142;7.768;2023-07-13T05:38:54;18.00;58.40
5868;DHT22;2960;49.142;7.768;2023-07-13T05:41:25;18.10;58.40
5868;DHT22;2960;49.142;7.768;2023-07-13T05:43:52;18.20;58.30
5868;DHT22;2960;49.142;7.768;2023-07-13T05:46:19;18.30;58.30
5868;DHT22;2960;49.142;7.768;2023-07-13T05:48:46;18.40;58.30
5868;DHT22;2960;49.142;7.768;2023-07-13T05:51:13;18.50;58.20
5868;DHT22;2960;49.142;7.768;2023-07-13T05:53:40;18.60;58.00
5868;DHT22;2960;49.142;7.768;2023-07-13T05:56:08;18.70;58.20
5868;DHT22;2960;49.142;7.768;2023-07-13T05:58:37;18.80;58.10
5868;DHT22;2960;49.142;7.768;2023-07-13T06:01:07;18.90;58.10
5868;DHT22;2960;49.142;7.768;2023-07-13T06:03:38;19.10;58.00
5868;DHT22;2960;49.142;7.768;2023-07-13T06:06:05;19.20;58.00
5868;DHT22;2960;49.142;7.768;2023-07-13T06:08:33;19.30;57.90
5868;DHT22;2960;49.142;7.768;2023-07-13T06:11:05;19.40;58.40
5868;DHT22;2960;49.142;7.768;2023-07-13T06:13:33;19.50;57.70
5868;DHT22;2960;49.142;7.768;2023-07-13T06:16:02;19.60;57.70
5868;DHT22;2960;49.142;7.768;2023-07-13T06:18:31;19.70;57.70
5868;DHT22;2960;49.142;7.768;2023-07-13T06:20:58;19.80;57.60
5868;DHT22;2960;49.142;7.768;2023-07-13T06:23:25;19.90;57.60
5868;DHT22;2960;49.142;7.768;2023-07-13T06:25:52;20.00;57.60
5868;DHT22;2960;49.142;7.768;2023-07-13T06:28:19;20.10;57.40
5868;DHT22;2960;49.142;7.768;2023-07-13T06:30:46;20.20;57.40
5868;DHT22;2960;49.142;7.768;2023-07-13T06:33:15;20.30;57.90
5868;DHT22;2960;49.142;7.768;2023-07-13T06:35:42;20.40;57.40
5868;DHT22;2960;49.142;7.768;2023-07-13T06:38:09;20.50;57.30
5868;DHT22;2960;49.142;7.768;2023-07-13T06:40:36;20.60;57.30
5868;DHT22;2960;49.142;7.768;2023-07-13T06:43:03;20.70;57.20
5868;DHT22;2960;49.142;7.768;2023-07-13T06:45:34;20.80;57.20
5868;DHT22;2960;49.142;7.768;2023-07-13T06:48:03;20.90;57.20
5868;DHT22;2960;49.142;7.768;2023-07-13T06:50:33;20.90;56.90
5868;DHT22;2960;49.142;7.768;2023-07-13T06:53:00;21.00;56.90
5868;DHT22;2960;49.142;7.768;2023-07-13T06:55:27;21.10;56.90
5868;DHT22;2960;49.142;7.768;2023-07-13T06:57:54;21.10;56.70
5868;DHT22;2960;49.142;7.768;2023-07-13T07:00:22;21.30;56.60
5868;DHT22;2960;49.142;7.768;2023-07-13T07:02:49;21.30;57.00
5868;DHT22;2960;49.142;7.768;2023-07-13T07:05:17;21.50;56.30
5868;DHT22;2960;49.142;7.768;2023-07-13T07:07:49;21.50;56.20
5868;DHT22;2960;49.142;7.768;2023-07-13T07:10:17;21.70;56.10
5868;DHT22;2960;49.142;7.768;2023-07-13T07:12:45;21.70;56.00
5868;DHT22;2960;49.142;7.768;2023-07-13T07:15:12;21.90;56.00
5868;DHT22;2960;49.142;7.768;2023-07-13T07:17:42;22.00;55.90
5868;DHT22;2960;49.142;7.768;2023-07-13T07:20:10;22.10;55.60
5868;DHT22;2960;49.142;7.768;2023-07-13T07:22:38;22.20;55.50
5868;DHT22;2960;49.142;7.768;2023-07-13T07:25:07;22.30;55.20
5868;DHT22;2960;49.142;7.768;2023-07-13T07:27:34;22.40;55.10
5868;DHT22;2960;49.142;7.768;2023-07-13T07:30:01;22.50;55.00
5868;DHT22;2960;49.142;7.768;2023-07-13T07:32:29;22.60;54.80
5868;DHT22;2960;49.142;7.768;2023-07-13T07:34:57;22.70;54.60
5868;DHT22;2960;49.142;7.768;2023-07-13T07:37:24;22.80;54.20
5868;DHT22;2960;49.142;7.768;2023-07-13T07:39:52;22.90;53.70
5868;DHT22;2960;49.142;7.768;2023-07-13T07:42:20;23.00;53.70
5868;DHT22;2960;49.142;7.768;2023-07-13T07:44:47;23.10;53.50
5868;DHT22;2960;49.142;7.768;2023-07-13T07:47:14;23.10;53.20
5868;DHT22;2960;49.142;7.768;2023-07-13T07:49:41;23.20;52.90
5868;DHT22;2960;49.142;7.768;2023-07-13T07:52:08;23.30;52.60
5868;DHT22;2960;49.142;7.768;2023-07-13T07:54:36;23.40;52.60
5868;DHT22;2960;49.142;7.768;2023-07-13T07:57:03;23.40;52.30
5868;DHT22;2960;49.142;7.768;2023-07-13T07:59:32;23.50;52.10
5868;DHT22;2960;49.142;7.768;2023-07-13T08:01:59;23.60;52.00
5868;DHT22;2960;49.142;7.768;2023-07-13T08:04:28;23.70;51.90
5868;DHT22;2960;49.142;7.768;2023-07-13T08:06:55;23.70;51.80
5868;DHT22;2960;49.142;7.768;2023-07-13T08:09:23;23.70;51.10
5868;DHT22;2960;49.142;7.768;2023-07-13T08:11:50;23.80;51.00
5868;DHT22;2960;49.142;7.768;2023-07-13T08:14:17;23.80;50.60
5868;DHT22;2960;49.142;7.768;2023-07-13T08:16:46;23.80;50.50
5868;DHT22;2960;49.142;7.768;2023-07-13T08:19:16;23.90;50.50
5868;DHT22;2960;49.142;7.768;2023-07-13T08:21:43;24.00;50.40
5868;DHT22;2960;49.142;7.768;2023-07-13T08:24:10;24.10;50.40
5868;DHT22;2960;49.142;7.768;2023-07-13T08:26:40;24.20;50.00
5868;DHT22;2960;49.142;7.768;2023-07-13T08:29:07;24.30;49.80
5868;DHT22;2960;49.142;7.768;2023-07-13T08:31:34;24.40;49.70
5868;DHT22;2960;49.142;7.768;2023-07-13T08:34:03;24.40;49.50
5868;DHT22;2960;49.142;7.768;2023-07-13T08:36:30;24.50;49.40
5868;DHT22;2960;49.142;7.768;2023-07-13T08:38:57;24.60;49.70
5868;DHT22;2960;49.142;7.768;2023-07-13T08:41:24;24.70;48.70
5868;DHT22;2960;49.142;7.768;2023-07-13T08:43:56;24.70;48.40
5868;DHT22;2960;49.142;7.768;2023-07-13T08:46:26;24.70;48.00
5868;DHT22;2960;49.142;7.768;2023-07-13T08:49:01;24.70;47.80
5868;DHT22;2960;49.142;7.768;2023-07-13T08:51:36;24.70;47.70
5868;DHT22;2960;49.142;7.768;2023-07-13T08:54:17;24.60;47.10
5868;DHT22;2960;49.142;7.768;2023-07-13T08:56:46;24.70;47.30
5868;DHT22;2960;49.142;7.768;2023-07-13T08:59:17;24.70;47.20
5868;DHT22;2960;49.142;7.768;2023-07-13T09:02:09;24.80;47.10
5868;DHT22;2960;49.142;7.768;2023-07-13T09:04:57;24.90;47.30
5868;DHT22;2960;49.142;7.768;2023-07-13T09:07:34;25.00;46.60
5868;DHT22;2960;49.142;7.768;2023-07-13T09:10:15;25.00;46.60
5868;DHT22;2960;49.142;7.768;2023-07-13T09:12:54;25.10;46.30
5868;DHT22;2960;49.142;7.768;2023-07-13T09:15:30;25.10;46.30
5868;DHT22;2960;49.142;7.768;2023-07-13T09:18:02;25.10;46.10
5868;DHT22;2960;49.142;7.768;2023-07-13T09:20:34;25.20;46.00
5868;DHT22;2960;49.142;7.768;2023-07-13T09:23:10;25.10;45.70
5868;DHT22;2960;49.142;7.768;2023-07-13T09:25:40;25.10;45.40
5868;DHT22;2960;49.142;7.768;2023-07-13T09:28:12;25.10;45.50
5868;DHT22;2960;49.142;7.768;2023-07-13T09:30:49;25.20;45.70
5868;DHT22;2960;49.142;7.768;2023-07-13T09:33:19;25.30;45.50
5868;DHT22;2960;49.142;7.768;2023-07-13T09:35:48;25.30;45.00
5868;DHT22;2960;49.142;7.768;2023-07-13T09:38:18;25.30;44.30
5868;DHT22;2960;49.142;7.768;2023-07-13T09:41:08;25.30;44.10
5868;DHT22;2960;49.142;7.768;2023-07-13T09:44:08;25.30;44.10
5868;DHT22;2960;49.142;7.768;2023-07-13T09:46:37;25.30;43.80
5868;DHT22;2960;49.142;7.768;2023-07-13T09:49:09;25.20;43.90
5868;DHT22;2960;49.142;7.768;2023-07-13T09:51:40;25.30;44.00
5868;DHT22;2960;49.142;7.768;2023-07-13T09:54:18;25.30;43.60
5868;DHT22;2960;49.142;7.768;2023-07-13T09:56:46;25.40;43.60
5868;DHT22;2960;49.142;7.768;2023-07-13T09:59:20;25.50;43.60
5868;DHT22;2960;49.142;7.768;2023-07-13T10:01:48;25.60;43.60
5868;DHT22;2960;49.142;7.768;2023-07-13T10:04:18;25.60;43.50
5868;DHT22;2960;49.142;7.768;2023-07-13T10:06:47;25.70;42.90
5868;DHT22;2960;49.142;7.768;2023-07-13T10:09:15;25.60;42.70
5868;DHT22;2960;49.142;7.768;2023-07-13T10:11:44;25.60;42.90
5868;DHT22;2960;49.142;7.768;2023-07-13T10:14:15;25.60;43.10
5868;DHT22;2960;49.142;7.768;2023-07-13T10:16:45;25.70;42.90
5868;DHT22;2960;49.142;7.768;2023-07-13T10:19:14;25.70;42.70
5868;DHT22;2960;49.142;7.768;2023-07-13T10:21:52;25.80;42.70
5868;DHT22;2960;49.142;7.768;2023-07-13T10:24:23;25.80;42.70
5868;DHT22;2960;49.142;7.768;2023-07-13T10:26:56;25.90;42.20
5868;DHT22;2960;49.142;7.768;2023-07-13T10:29:41;26.00;42.30
5868;DHT22;2960;49.142;7.768;2023-07-13T10:32:12;26.10;42.20
5868;DHT22;2960;49.142;7.768;2023-07-13T10:34:40;26.10;41.80
5868;DHT22;2960;49.142;7.768;2023-07-13T10:37:16;26.10;41.60
5868;DHT22;2960;49.142;7.768;2023-07-13T10:39:47;26.20;41.60
5868;DHT22;2960;49.142;7.768;2023-07-13T10:42:21;26.20;41.50
5868;DHT22;2960;49.142;7.768;2023-07-13T10:44:54;26.30;41.30
5868;DHT22;2960;49.142;7.768;2023-07-13T10:47:22;26.40;41.30
5868;DHT22;2960;49.142;7.768;2023-07-13T10:49:52;26.50;41.10
5868;DHT22;2960;49.142;7.768;2023-07-13T10:52:42;26.60;40.90
5868;DHT22;2960;49.142;7.768;2023-07-13T10:55:33;26.70;40.40
5868;DHT22;2960;49.142;7.768;2023-07-13T10:58:03;26.70;40.30
5868;DHT22;2960;49.142;7.768;2023-07-13T11:00:48;26.80;40.40
5868;DHT22;2960;49.142;7.768;2023-07-13T11:03:18;26.80;39.80
5868;DHT22;2960;49.142;7.768;2023-07-13T11:05:49;26.80;39.90
5868;DHT22;2960;49.142;7.768;2023-07-13T11:08:32;26.70;39.30
5868;DHT22;2960;49.142;7.768;2023-07-13T11:11:02;26.70;38.40
5868;DHT22;2960;49.142;7.768;2023-07-13T11:13:56;26.60;38.70
5868;DHT22;2960;49.142;7.768;2023-07-13T11:16:36;26.50;39.20
5868;DHT22;2960;49.142;7.768;2023-07-13T11:22:15;26.40;39.30
5868;DHT22;2960;49.142;7.768;2023-07-13T11:24:56;26.40;39.40
5868;DHT22;2960;49.142;7.768;2023-07-13T11:27:39;26.40;40.00
5868;DHT22;2960;49.142;7.768;2023-07-13T11:30:25;26.50;39.40
5868;DHT22;2960;49.142;7.768;2023-07-13T11:33:13;26.50;39.40
5868;DHT22;2960;49.142;7.768;2023-07-13T11:35:50;26.60;39.50
5868;DHT22;2960;49.142;7.768;2023-07-13T11:38:21;26.60;39.50
5868;DHT22;2960;49.142;7.768;2023-07-13T11:40:54;26.70;40.30
5868;DHT22;2960;49.142;7.768;2023-07-13T11:43:22;26.80;39.60
5868;DHT22;2960;49.142;7.768;2023-07-13T11:45:50;26.90;39.10
5868;DHT22;2960;49.142;7.768;2023-07-13T11:48:27;27.00;38.90
5868;DHT22;2960;49.142;7.768;2023-07-13T11:51:00;27.00;38.70
5868;DHT22;2960;49.142;7.768;2023-07-13T11:53:37;27.10;38.80
5868;DHT22;2960;49.142;7.768;2023-07-13T11:56:07;27.10;38.70
5868;DHT22;2960;49.142;7.768;2023-07-13T11:58:34;27.10;38.20
5868;DHT22;2960;49.142;7.768;2023-07-13T12:01:02;27.00;38.50
5868;DHT22;2960;49.142;7.768;2023-07-13T12:03:33;27.00;38.80
5868;DHT22;2960;49.142;7.768;2023-07-13T12:06:03;27.00;38.90
5868;DHT22;2960;49.142;7.768;2023-07-13T12:08:38;27.00;39.60
5868;DHT22;2960;49.142;7.768;2023-07-13T12:11:16;27.10;39.10
5868;DHT22;2960;49.142;7.768;2023-07-13T12:13:48;27.20;38.90
5868;DHT22;2960;49.142;7.768;2023-07-13T12:16:17;27.30;38.40
5868;DHT22;2960;49.142;7.768;2023-07-13T12:18:53;27.30;38.30
5868;DHT22;2960;49.142;7.768;2023-07-13T12:21:27;27.40;38.40
5868;DHT22;2960;49.142;7.768;2023-07-13T12:23:57;27.30;38.30
5868;DHT22;2960;49.142;7.768;2023-07-13T12:26:29;27.30;38.40
5868;DHT22;2960;49.142;7.768;2023-07-13T12:28:59;27.20;38.40
5868;DHT22;2960;49.142;7.768;2023-07-13T12:31:33;27.10;38.50
5868;DHT22;2960;49.142;7.768;2023-07-13T12:34:06;27.00;38.30
5868;DHT22;2960;49.142;7.768;2023-07-13T12:36:39;26.80;38.40
5868;DHT22;2960;49.142;7.768;2023-07-13T12:39:14;26.70;38.50
5868;DHT22;2960;49.142;7.768;2023-07-13T12:41:44;26.60;38.70
5868;DHT22;2960;49.142;7.768;2023-07-13T12:44:15;26.60;39.60
5868;DHT22;2960;49.142;7.768;2023-07-13T12:46:54;26.60;39.00
5868;DHT22;2960;49.142;7.768;2023-07-13T12:49:28;26.50;38.90
5868;DHT22;2960;49.142;7.768;2023-07-13T12:51:59;26.50;39.10
5868;DHT22;2960;49.142;7.768;2023-07-13T12:54:29;26.50;39.10
5868;DHT22;2960;49.142;7.768;2023-07-13T12:56:59;26.50;39.20
5868;DHT22;2960;49.142;7.768;2023-07-13T12:59:31;26.50;39.10
5868;DHT22;2960;49.142;7.768;2023-07-13T13:02:02;26.60;39.10
5868;DHT22;2960;49.142;7.768;2023-07-13T13:04:49;26.50;39.10
5868;DHT22;2960;49.142;7.768;2023-07-13T13:07:16;26.50;39.20
5868;DHT22;2960;49.142;7.768;2023-07-13T13:09:46;26.50;39.00
5868;DHT22;2960;49.142;7.768;2023-07-13T13:12:15;26.50;39.00
5868;DHT22;2960;49.142;7.768;2023-07-13T13:14:43;26.50;39.00
5868;DHT22;2960;49.142;7.768;2023-07-13T13:17:20;26.50;39.00
5868;DHT22;2960;49.142;7.768;2023-07-13T13:19:49;26.60;39.00
5868;DHT22;2960;49.142;7.768;2023-07-13T13:22:19;26.60;38.90
5868;DHT22;2960;49.142;7.768;2023-07-13T13:24:46;26.70;39.10
5868;DHT22;2960;49.142;7.768;2023-07-13T13:27:20;26.70;38.90
5868;DHT22;2960;49.142;7.768;2023-07-13T13:29:50;26.80;38.70
5868;DHT22;2960;49.142;7.768;2023-07-13T13:32:18;26.80;38.70
5868;DHT22;2960;49.142;7.768;2023-07-13T13:34:46;26.90;38.80
5868;DHT22;2960;49.142;7.768;2023-07-13T13:37:18;26.90;38.90
5868;DHT22;2960;49.142;7.768;2023-07-13T13:39:48;27.00;38.80
5868;DHT22;2960;49.142;7.768;2023-07-13T13:42:17;27.10;38.90
5868;DHT22;2960;49.142;7.768;2023-07-13T13:44:46;27.10;38.50
5868;DHT22;2960;49.142;7.768;2023-07-13T13:47:28;27.10;38.40
5868;DHT22;2960;49.142;7.768;2023-07-13T13:49:57;27.00;37.90
5868;DHT22;2960;49.142;7.768;2023-07-13T13:52:24;26.90;37.90
5868;DHT22;2960;49.142;7.768;2023-07-13T13:54:51;26.90;38.10
5868;DHT22;2960;49.142;7.768;2023-07-13T13:57:23;26.80;38.00
5868;DHT22;2960;49.142;7.768;2023-07-13T13:59:51;26.80;38.10
5868;DHT22;2960;49.142;7.768;2023-07-13T14:02:23;26.70;38.00
5868;DHT22;2960;49.142;7.768;2023-07-13T14:04:56;26.70;38.10
5868;DHT22;2960;49.142;7.768;2023-07-13T14:07:24;26.70;38.20
5868;DHT22;2960;49.142;7.768;2023-07-13T14:09:52;26.60;38.30
5868;DHT22;2960;49.142;7.768;2023-07-13T14:12:20;26.60;38.90
5868;DHT22;2960;49.142;7.768;2023-07-13T14:14:48;26.60;38.30
5868;DHT22;2960;49.142;7.768;2023-07-13T14:17:20;26.50;38.30
5868;DHT22;2960;49.142;7.768;2023-07-13T14:19:48;26.50;38.50
5868;DHT22;2960;49.142;7.768;2023-07-13T14:22:22;26.50;38.40
5868;DHT22;2960;49.142;7.768;2023-07-13T14:24:51;26.50;38.50
5868;DHT22;2960;49.142;7.768;2023-07-13T14:27:20;26.50;38.50
5868;DHT22;2960;49.142;7.768;2023-07-13T14:29:49;26.50;38.20
5868;DHT22;2960;49.142;7.768;2023-07-13T14:32:16;26.50;38.30
5868;DHT22;2960;49.142;7.768;2023-07-13T14:34:43;26.60;38.40
5868;DHT22;2960;49.142;7.768;2023-07-13T14:37:13;26.60;38.30
5868;DHT22;2960;49.142;7.768;2023-07-13T14:39:42;26.60;38.40
5868;DHT22;2960;49.142;7.768;2023-07-13T14:42:11;26.60;38.30
5868;DHT22;2960;49.142;7.768;2023-07-13T14:44:39;26.60;38.30
5868;DHT22;2960;49.142;7.768;2023-07-13T14:47:08;26.60;38.40
5868;DHT22;2960;49.142;7.768;2023-07-13T14:49:38;26.60;38.50
5868;DHT22;2960;49.142;7.768;2023-07-13T14:52:11;26.60;38.40
5868;DHT22;2960;49.142;7.768;2023-07-13T14:54:40;26.60;38.40
5868;DHT22;2960;49.142;7.768;2023-07-13T14:57:10;26.60;38.50
5868;DHT22;2960;49.142;7.768;2023-07-13T14:59:38;26.60;38.30
5868;DHT22;2960;49.142;7.768;2023-07-13T15:02:17;26.60;38.20
5868;DHT22;2960;49.142;7.768;2023-07-13T15:04:46;26.70;38.20
5868;DHT22;2960;49.142;7.768;2023-07-13T15:07:13;26.70;38.20
5868;DHT22;2960;49.142;7.768;2023-07-13T15:09:42;26.70;38.10
5868;DHT22;2960;49.142;7.768;2023-07-13T15:12:09;26.70;38.20
5868;DHT22;2960;49.142;7.768;2023-07-13T15:14:36;26.80;38.20
5868;DHT22;2960;49.142;7.768;2023-07-13T15:17:04;26.80;38.10
5868;DHT22;2960;49.142;7.768;2023-07-13T15:19:33;26.80;38.20
5868;DHT22;2960;49.142;7.768;2023-07-13T15:22:01;26.80;38.80
5868;DHT22;2960;49.142;7.768;2023-07-13T15:24:29;26.70;38.10
5868;DHT22;2960;49.142;7.768;2023-07-13T15:26:56;26.70;38.70
5868;DHT22;2960;49.142;7.768;2023-07-13T15:29:24;26.70;38.10
5868;DHT22;2960;49.142;7.768;2023-07-13T15:31:51;26.70;38.20
5868;DHT22;2960;49.142;7.768;2023-07-13T15:34:22;26.80;38.20
5868;DHT22;2960;49.142;7.768;2023-07-13T15:36:52;26.80;38.10
5868;DHT22;2960;49.142;7.768;2023-07-13T15:39:19;26.80;37.90
5868;DHT22;2960;49.142;7.768;2023-07-13T15:41:48;26.80;37.90
5868;DHT22;2960;49.142;7.768;2023-07-13T15:44:27;26.80;38.00
5868;DHT22;2960;49.142;7.768;2023-07-13T15:46:56;26.70;37.90
5868;DHT22;2960;49.142;7.768;2023-07-13T15:49:25;26.60;37.90
5868;DHT22;2960;49.142;7.768;2023-07-13T15:51:55;26.60;38.10
5868;DHT22;2960;49.142;7.768;2023-07-13T15:54:23;26.50;38.10
5868;DHT22;2960;49.142;7.768;2023-07-13T15:56:52;26.50;38.70
5868;DHT22;2960;49.142;7.768;2023-07-13T15:59:21;26.50;38.10
5868;DHT22;2960;49.142;7.768;2023-07-13T16:01:48;26.40;38.30
5868;DHT22;2960;49.142;7.768;2023-07-13T16:04:16;26.40;38.30
5868;DHT22;2960;49.142;7.768;2023-07-13T16:06:45;26.50;38.30
5868;DHT22;2960;49.142;7.768;2023-07-13T16:09:18;26.40;38.20
5868;DHT22;2960;49.142;7.768;2023-07-13T16:11:47;26.40;38.10
5868;DHT22;2960;49.142;7.768;2023-07-13T16:14:16;26.40;38.20
5868;DHT22;2960;49.142;7.768;2023-07-13T16:16:43;26.40;38.00
5868;DHT22;2960;49.142;7.768;2023-07-13T16:19:11;26.30;38.00
5868;DHT22;2960;49.142;7.768;2023-07-13T16:21:42;26.30;38.10